createdAt,value
2023-04-11T00:02:08.883Z,4.83
2023-04-11T00:07:11.061Z,5.03
2023-04-11T00:12:13.329Z,5.60
2023-04-11T00:17:16.972Z,6.40
2023-04-11T00:22:19.450Z,3.77
2023-04-11T00:27:22.047Z,5.30
2023-04-11T00:32:25.668Z,5.20
2023-04-11T00:37:27.885Z,4.33
2023-04-11T00:42:29.987Z,3.73
2023-04-11T00:47:34.249Z,5.07
2023-04-11T00:52:39.402Z,4.60
2023-04-11T00:57:42.290Z,5.73
2023-04-11T01:02:45.744Z,4.13
2023-04-11T01:07:52.534Z,5.17
2023-04-11T01:12:55.861Z,5.67
2023-04-11T01:17:59.980Z,3.77
2023-04-11T01:23:02.674Z,5.00
2023-04-11T01:28:06.451Z,5.27
2023-04-11T01:33:08.609Z,4.97
2023-04-11T01:38:11.575Z,5.03
2023-04-11T01:43:15.005Z,5.17
2023-04-11T01:48:16.944Z,5.17
2023-04-11T01:53:19.166Z,4.87
2023-04-11T01:58:22.635Z,4.83
2023-04-11T02:03:25.070Z,4.90
2023-04-11T02:08:27.492Z,5.00
2023-04-11T02:13:30.914Z,4.27
2023-04-11T02:18:32.974Z,4.97
2023-04-11T02:23:35.189Z,4.03
2023-04-11T02:28:38.303Z,5.77
2023-04-11T02:33:40.348Z,4.30
2023-04-11T02:38:42.387Z,5.90
2023-04-11T02:43:46.123Z,3.80
2023-04-11T02:48:48.212Z,5.37
2023-04-11T02:53:50.262Z,3.87
2023-04-11T02:58:53.987Z,4.40
2023-04-11T03:03:56.637Z,4.93
2023-04-11T03:08:58.746Z,4.87
2023-04-11T03:14:02.709Z,3.70
2023-04-11T03:19:04.686Z,5.07
2023-04-11T03:24:07.183Z,6.13
2023-04-11T03:29:10.740Z,6.33
2023-04-11T03:34:12.815Z,3.63
2023-04-11T03:39:15.157Z,5.00
2023-04-11T03:44:18.570Z,5.13
2023-04-11T03:49:20.758Z,5.13
2023-04-11T03:54:22.823Z,5.60
2023-04-11T03:59:26.335Z,4.50
2023-04-11T04:04:28.885Z,6.33
2023-04-11T04:09:31.085Z,6.30
2023-04-11T04:14:34.569Z,5.17
2023-04-11T04:19:36.593Z,6.47
2023-04-11T04:24:38.602Z,6.03
2023-04-11T04:29:45.328Z,9.37
2023-04-11T04:34:50.728Z,5.90
2023-04-11T04:39:53.662Z,9.33
2023-04-11T04:44:57.262Z,7.60
2023-04-11T04:49:59.957Z,7.90
2023-04-11T04:55:01.826Z,7.13
2023-04-11T05:00:06.851Z,8.33
2023-04-11T05:05:09.490Z,7.30
2023-04-11T05:10:11.678Z,7.33
2023-04-11T05:15:15.921Z,9.73
2023-04-11T05:20:17.921Z,9.67
2023-04-11T05:25:23.101Z,9.03
2023-04-11T05:30:26.642Z,10.77
2023-04-11T05:35:29.994Z,8.43
2023-04-11T05:40:31.924Z,10.60
2023-04-11T05:45:35.322Z,9.03
2023-04-11T05:50:37.429Z,9.23
2023-04-11T05:55:39.416Z,8.87
2023-04-11T06:00:42.942Z,12.30
2023-04-11T06:05:45.412Z,8.13
2023-04-11T06:10:47.143Z,12.53
2023-04-11T06:15:50.521Z,12.93
2023-04-11T06:20:52.246Z,7.93
2023-04-11T06:25:54.077Z,8.10
2023-04-11T06:30:57.564Z,10.77
2023-04-11T06:35:59.721Z,8.37
2023-04-11T06:41:02.398Z,9.40
2023-04-11T06:46:06.069Z,9.17
2023-04-11T06:51:07.989Z,10.03
2023-04-11T06:56:10.534Z,9.30
2023-04-11T07:01:13.868Z,8.90
2023-04-11T07:06:16.035Z,10.07
2023-04-11T07:11:19.145Z,10.67
2023-04-11T07:16:23.789Z,11.63
2023-04-11T07:21:25.778Z,7.27
2023-04-11T07:26:27.975Z,10.63
2023-04-11T07:31:31.692Z,6.73
2023-04-11T07:36:34.113Z,8.07
2023-04-11T07:41:36.905Z,7.37
2023-04-11T07:46:40.287Z,6.30
2023-04-11T07:51:42.324Z,6.00
2023-04-11T07:56:44.330Z,5.23
2023-04-11T08:01:58.754Z,8.47
2023-04-11T08:07:00.960Z,7.37
2023-04-11T08:12:02.981Z,6.30
2023-04-11T08:17:14.663Z,3.77
2023-04-11T08:22:24.452Z,5.53
2023-04-11T08:27:26.207Z,3.97
2023-04-11T08:32:29.654Z,3.57
2023-04-11T08:37:32.632Z,1.83
2023-04-11T08:42:35.362Z,3.90
2023-04-11T08:47:38.537Z,2.27
2023-04-11T08:52:42.479Z,5.87
2023-04-11T08:57:46.449Z,2.53
2023-04-11T09:02:57.588Z,3.70
2023-04-11T09:08:01.495Z,5.33
2023-04-11T09:13:19.379Z,0.80
2023-04-11T09:18:33.482Z,5.30
2023-04-11T09:23:36.358Z,4.73
2023-04-11T09:28:43.007Z,2.60
2023-04-11T09:33:54.847Z,2.27
2023-04-11T09:38:57.947Z,3.67
2023-04-11T09:44:00.886Z,3.57
2023-04-11T09:49:04.255Z,2.00
2023-04-11T09:54:07.004Z,4.90
2023-04-11T09:59:09.256Z,5.60
2023-04-11T10:04:12.692Z,1.53
2023-04-11T10:09:19.238Z,5.27
2023-04-11T10:14:43.672Z,3.10
2023-04-11T10:19:47.135Z,2.30
2023-04-11T10:25:16.313Z,2.50
2023-04-11T10:30:18.432Z,1.43
2023-04-11T10:35:24.939Z,2.07
2023-04-11T10:40:26.678Z,1.57
2023-04-11T10:45:29.589Z,1.67
2023-04-11T10:50:37.955Z,2.07
2023-04-11T10:55:51.165Z,2.33
2023-04-11T11:01:26.118Z,2.00
2023-04-11T11:06:46.611Z,2.93
2023-04-11T11:12:05.158Z,0.80
2023-04-11T11:17:07.360Z,0.60
2023-04-11T11:22:15.856Z,0.50
2023-04-11T11:27:19.845Z,0.93
2023-04-11T11:32:22.921Z,0.90
2023-04-11T11:37:26.379Z,1.33
2023-04-11T11:42:28.608Z,0.60
2023-04-11T11:47:41.280Z,2.13
2023-04-11T11:52:44.542Z,1.33
2023-04-11T11:57:47.848Z,2.33
2023-04-11T12:02:52.724Z,3.17
2023-04-11T12:07:57.340Z,3.30
2023-04-11T12:12:59.516Z,1.20
2023-04-11T12:18:01.471Z,0.70
2023-04-11T12:23:04.599Z,1.80
2023-04-11T12:28:06.522Z,3.27
2023-04-11T12:33:08.554Z,2.87
2023-04-11T12:38:15.034Z,1.40
2023-04-11T12:43:20.127Z,1.80
2023-04-11T12:48:22.133Z,1.27
2023-04-11T12:53:25.210Z,4.90
2023-04-11T12:58:27.601Z,0.90
2023-04-11T13:03:29.562Z,3.63
2023-04-11T13:08:33.147Z,5.20
2023-04-11T13:13:35.110Z,2.33
2023-04-11T13:18:37.456Z,1.60
2023-04-11T13:23:40.842Z,1.90
2023-04-11T13:28:42.621Z,1.90
2023-04-11T13:33:44.659Z,1.70
2023-04-11T13:38:50.602Z,1.97
2023-04-11T13:43:52.921Z,1.33
2023-04-11T13:48:57.249Z,1.93
2023-04-11T13:54:02.706Z,2.60
2023-04-11T13:59:04.650Z,0.97
2023-04-11T14:04:06.900Z,0.77
2023-04-11T14:09:10.474Z,1.33
2023-04-11T14:14:12.422Z,0.60
2023-04-11T14:19:14.143Z,2.73
2023-04-11T14:24:17.427Z,3.40
2023-04-11T14:29:21.003Z,1.23
2023-04-11T14:34:24.131Z,0.50
2023-04-11T14:39:27.678Z,2.77
2023-04-11T14:44:29.907Z,1.23
2023-04-11T14:49:32.137Z,1.03
2023-04-11T14:54:35.280Z,0.50
2023-04-11T14:59:37.008Z,3.10
2023-04-11T15:04:38.776Z,1.67
2023-04-11T15:09:42.267Z,4.00
2023-04-11T15:14:45.258Z,0.50
2023-04-11T15:19:50.303Z,2.83
2023-04-11T15:24:53.682Z,0.50
2023-04-11T15:30:04.425Z,1.00
2023-04-11T15:35:06.975Z,0.70
2023-04-11T15:40:11.316Z,3.07
2023-04-11T15:45:13.276Z,0.70
2023-04-11T15:50:15.603Z,2.27
2023-04-11T15:55:18.913Z,2.17
2023-04-11T16:00:21.489Z,1.53
2023-04-11T16:05:25.269Z,1.33
2023-04-11T16:10:28.806Z,1.37
2023-04-11T16:15:31.855Z,1.63
2023-04-11T16:20:33.875Z,0.60
2023-04-11T16:25:37.714Z,0.40
2023-04-11T16:30:40.512Z,1.40
2023-04-11T16:35:48.712Z,1.07
2023-04-11T16:40:52.144Z,0.70
2023-04-11T16:45:57.115Z,2.10
2023-04-11T16:51:00.934Z,0.93
2023-04-11T16:56:07.332Z,2.20
2023-04-11T17:01:12.515Z,1.80
2023-04-11T17:06:16.799Z,1.33
2023-04-11T17:11:25.527Z,0.60
2023-04-11T17:16:30.394Z,3.27
2023-04-11T17:21:35.221Z,0.60
2023-04-11T17:26:39.094Z,1.23
2023-04-11T17:31:41.174Z,2.57
2023-04-11T17:36:43.030Z,1.50
2023-04-11T17:41:46.772Z,1.10
2023-04-11T17:46:48.744Z,0.93
2023-04-11T17:51:58.881Z,1.20
2023-04-11T17:57:02.897Z,0.40
2023-04-11T18:02:05.429Z,1.03
2023-04-11T18:07:07.186Z,1.20
2023-04-11T18:12:10.886Z,2.33
2023-04-11T18:17:12.852Z,1.03
2023-04-11T18:22:14.743Z,0.83
2023-04-11T18:27:18.204Z,0.57
2023-04-11T18:32:23.113Z,1.77
2023-04-11T18:37:26.837Z,1.00
2023-04-11T18:42:30.316Z,0.50
2023-04-11T18:47:32.559Z,1.50
2023-04-11T18:52:35.059Z,3.60
2023-04-11T18:57:39.600Z,0.77
2023-04-11T19:02:42.295Z,0.40
2023-04-11T19:07:44.781Z,2.00
2023-04-11T19:12:48.922Z,1.00
2023-04-11T19:17:52.284Z,2.17
2023-04-11T19:22:55.067Z,2.03
2023-04-11T19:27:59.240Z,0.77
2023-04-11T19:33:01.936Z,1.17
2023-04-11T19:38:04.317Z,2.03
2023-04-11T19:43:08.651Z,0.57
2023-04-11T19:48:12.637Z,0.80
2023-04-11T19:53:15.541Z,0.83
2023-04-11T19:58:19.632Z,1.03
2023-04-11T20:03:22.937Z,1.73
2023-04-11T20:08:25.921Z,1.70
2023-04-11T20:13:30.273Z,1.33
2023-04-11T20:18:34.888Z,4.13
2023-04-11T20:23:37.621Z,3.03
2023-04-11T20:28:41.662Z,2.60
2023-04-11T20:33:44.240Z,3.30
2023-04-11T20:38:47.064Z,3.90
2023-04-11T20:43:53.701Z,2.30
2023-04-11T20:48:55.934Z,2.47
2023-04-11T20:53:58.461Z,1.57
2023-04-11T20:59:02.212Z,1.67
2023-04-11T21:04:07.869Z,1.67
2023-04-11T21:09:09.662Z,1.87
2023-04-11T21:14:13.059Z,4.80
2023-04-11T21:19:15.465Z,0.87
2023-04-11T21:24:17.557Z,2.70
2023-04-11T21:29:20.572Z,0.47
2023-04-11T21:34:22.370Z,1.23
2023-04-11T21:39:24.112Z,1.70
2023-04-11T21:44:27.494Z,2.10
2023-04-11T21:49:29.756Z,1.90
2023-04-11T21:54:33.627Z,2.90
2023-04-11T21:59:37.551Z,2.67
2023-04-11T22:04:51.137Z,2.10
2023-04-11T22:09:54.084Z,1.57
2023-04-11T22:14:57.401Z,4.70
2023-04-11T22:20:00.057Z,3.10
2023-04-11T22:25:02.203Z,1.90
2023-04-11T22:30:07.229Z,2.97
2023-04-11T22:35:09.716Z,1.43
2023-04-11T22:40:12.140Z,2.87
2023-04-11T22:45:15.825Z,1.70
2023-04-11T22:50:17.612Z,2.80
2023-04-11T22:55:19.511Z,1.93
2023-04-11T23:00:23.146Z,2.17
2023-04-11T23:05:24.941Z,1.77
2023-04-11T23:10:26.961Z,1.17
2023-04-11T23:15:30.635Z,1.43
2023-04-11T23:20:35.173Z,2.07
2023-04-11T23:25:38.717Z,1.07
2023-04-11T23:30:42.121Z,2.10
2023-04-11T23:35:44.196Z,3.37
2023-04-11T23:40:46.421Z,1.00
2023-04-11T23:45:50.173Z,1.40
2023-04-11T23:50:52.316Z,1.60
2023-04-11T23:55:54.628Z,1.00
